Aviation Digital Data Service (ADDS)

Output produced by METARs form (2318 UTC 23 March 2019)
found at http://www.aviationweather.gov/metar/data/
 
METAR text: URSS 232300Z 06002MPS 9999 NSC 01/00 Q1017 R02/190060 R06/190060 NOSIG RMK R06/00000MPS QFE762
Conditions at: URSS (SOTCHI , RU) observed 2300 UTC 23 March 2019
Temperature: 1.0°C (34°F)
Dewpoint: 0.0°C (32°F) [RH = 93%]
Pressure (altimeter): 30.03 inches Hg (1017.0 mb)
Winds: from the ENE (60 degrees) at 5 MPH (4 knots; 2.1 m/s)
Visibility: 6 or more miles (10+ km)
Ceiling: at least 12,000 feet AGL
Clouds: sky clear below 12,000 feet AGL
Weather: no significant weather observed at this time

METAR text: URSS 232230Z 05002MPS 9999 NSC 01/00 Q1018 R02/290060 R06/290060 NOSIG RMK R06/08002MPS QFE762
Conditions at: URSS (SOTCHI , RU) observed 2230 UTC 23 March 2019
Temperature: 1.0°C (34°F)
Dewpoint: 0.0°C (32°F) [RH = 93%]
Pressure (altimeter): 30.06 inches Hg (1018.0 mb)
Winds: from the NE (50 degrees) at 5 MPH (4 knots; 2.1 m/s)
Visibility: 6 or more miles (10+ km)
Ceiling: at least 12,000 feet AGL
Clouds: sky clear below 12,000 feet AGL
Weather: no significant weather observed at this time

METAR text: URSS 232200Z 06002MPS 9999 NSC 02/01 Q1017 R02/290060 R06/290060 NOSIG RMK R06/08002MPS QFE762
Conditions at: URSS (SOTCHI , RU) observed 2200 UTC 23 March 2019
Temperature: 2.0°C (36°F)
Dewpoint: 1.0°C (34°F) [RH = 93%]
Pressure (altimeter): 30.03 inches Hg (1017.0 mb)
Winds: from the ENE (60 degrees) at 5 MPH (4 knots; 2.1 m/s)
Visibility: 6 or more miles (10+ km)
Ceiling: at least 12,000 feet AGL
Clouds: sky clear below 12,000 feet AGL
Weather: no significant weather observed at this time

METAR text: URSS 232130Z 05003MPS 9999 NSC 02/01 Q1017 R02/290060 R06/290060 NOSIG RMK R06/00000MPS QFE761
Conditions at: URSS (SOTCHI , RU) observed 2130 UTC 23 March 2019
Temperature: 2.0°C (36°F)
Dewpoint: 1.0°C (34°F) [RH = 93%]
Pressure (altimeter): 30.03 inches Hg (1017.0 mb)
Winds: from the NE (50 degrees) at 7 MPH (6 knots; 3.1 m/s)
Visibility: 6 or more miles (10+ km)
Ceiling: at least 12,000 feet AGL
Clouds: sky clear below 12,000 feet AGL
Weather: no significant weather observed at this time

METAR text: URSS 232100Z 05003MPS 9999 NSC 02/01 Q1017 R02/290060 R06/290060 NOSIG RMK R06/10001MPS QFE761
Conditions at: URSS (SOTCHI , RU) observed 2100 UTC 23 March 2019
Temperature: 2.0°C (36°F)
Dewpoint: 1.0°C (34°F) [RH = 93%]
Pressure (altimeter): 30.03 inches Hg (1017.0 mb)
Winds: from the NE (50 degrees) at 7 MPH (6 knots; 3.1 m/s)
Visibility: 6 or more miles (10+ km)
Ceiling: at least 12,000 feet AGL
Clouds: sky clear below 12,000 feet AGL
Weather: no significant weather observed at this time

METAR text: URSS 232030Z 05002MPS 9999 NSC 02/01 Q1017 R02/290060 R06/290060 NOSIG RMK R06/34003MPS QFE761
Conditions at: URSS (SOTCHI , RU) observed 2030 UTC 23 March 2019
Temperature: 2.0°C (36°F)
Dewpoint: 1.0°C (34°F) [RH = 93%]
Pressure (altimeter): 30.03 inches Hg (1017.0 mb)
Winds: from the NE (50 degrees) at 5 MPH (4 knots; 2.1 m/s)
Visibility: 6 or more miles (10+ km)
Ceiling: at least 12,000 feet AGL
Clouds: sky clear below 12,000 feet AGL
Weather: no significant weather observed at this time

METAR text: URSS 232000Z 10001MPS 9999 NSC 02/01 Q1017 R02/290060 R06/290060 NOSIG RMK R06/34002MPS QFE761
Conditions at: URSS (SOTCHI , RU) observed 2000 UTC 23 March 2019
Temperature: 2.0°C (36°F)
Dewpoint: 1.0°C (34°F) [RH = 93%]
Pressure (altimeter): 30.03 inches Hg (1017.0 mb)
Winds: from the E (100 degrees) at 2 MPH (2 knots; 1.0 m/s)
Visibility: 6 or more miles (10+ km)
Ceiling: at least 12,000 feet AGL
Clouds: sky clear below 12,000 feet AGL
Weather: no significant weather observed at this time

METAR text: URSS 231930Z 06002MPS 9999 NSC 02/01 Q1017 R02/290060 R06/290060 NOSIG RMK R06/34002MPS QFE761
Conditions at: URSS (SOTCHI , RU) observed 1930 UTC 23 March 2019
Temperature: 2.0°C (36°F)
Dewpoint: 1.0°C (34°F) [RH = 93%]
Pressure (altimeter): 30.03 inches Hg (1017.0 mb)
Winds: from the ENE (60 degrees) at 5 MPH (4 knots; 2.1 m/s)
Visibility: 6 or more miles (10+ km)
Ceiling: at least 12,000 feet AGL
Clouds: sky clear below 12,000 feet AGL
Weather: no significant weather observed at this time

METAR text: URSS 231900Z 07001MPS 9999 NSC 03/02 Q1016 R02/290060 R06/290060 NOSIG RMK R06/34002MPS QFE761
Conditions at: URSS (SOTCHI , RU) observed 1900 UTC 23 March 2019
Temperature: 3.0°C (37°F)
Dewpoint: 2.0°C (36°F) [RH = 93%]
Pressure (altimeter): 30.00 inches Hg (1016.0 mb)
Winds: from the ENE (70 degrees) at 2 MPH (2 knots; 1.0 m/s)
Visibility: 6 or more miles (10+ km)
Ceiling: at least 12,000 feet AGL
Clouds: sky clear below 12,000 feet AGL
Weather: no significant weather observed at this time

METAR text: URSS 231830Z 02001MPS 9999 NSC 03/02 Q1016 R02/290060 R06/290060 NOSIG RMK R06/33002MPS QFE761
Conditions at: URSS (SOTCHI , RU) observed 1830 UTC 23 March 2019
Temperature: 3.0°C (37°F)
Dewpoint: 2.0°C (36°F) [RH = 93%]
Pressure (altimeter): 30.00 inches Hg (1016.0 mb)
Winds: from the NNE (20 degrees) at 2 MPH (2 knots; 1.0 m/s)
Visibility: 6 or more miles (10+ km)
Ceiling: at least 12,000 feet AGL
Clouds: sky clear below 12,000 feet AGL
Weather: no significant weather observed at this time

METAR text: URSS 231800Z 06002MPS 9999 NSC 03/02 Q1016 R02/290060 R06/290060 NOSIG RMK R06/08003MPS QFE761
Conditions at: URSS (SOTCHI , RU) observed 1800 UTC 23 March 2019
Temperature: 3.0°C (37°F)
Dewpoint: 2.0°C (36°F) [RH = 93%]
Pressure (altimeter): 30.00 inches Hg (1016.0 mb)
Winds: from the ENE (60 degrees) at 5 MPH (4 knots; 2.1 m/s)
Visibility: 6 or more miles (10+ km)
Ceiling: at least 12,000 feet AGL
Clouds: sky clear below 12,000 feet AGL
Weather: no significant weather observed at this time

METAR text: URSS 231730Z 05002MPS 9999 SCT040CB 04/02 Q1016 WS ALL RWY R02/290060 R06/290060 NOSIG RMK R06/07003MPS MT OBSC QFE761
Conditions at: URSS (SOTCHI , RU) observed 1730 UTC 23 March 2019
Temperature: 4.0°C (39°F)
Dewpoint: 2.0°C (36°F) [RH = 87%]
Pressure (altimeter): 30.00 inches Hg (1016.0 mb)
Winds: from the NE (50 degrees) at 5 MPH (4 knots; 2.1 m/s)
Visibility: 6 or more miles (10+ km)
Ceiling: at least 12,000 feet AGL
Clouds: scattered clouds at 4000 feet AGL
Weather: no significant weather observed at this time

METAR text: URSS 231700Z 05002MPS 9999 SCT016 BKN035CB 04/02 Q1016 WS ALL RWY R02/290060 R06/290060 NOSIG RMK R06/05002MPS MT OBSC QFE760
Conditions at: URSS (SOTCHI , RU) observed 1700 UTC 23 March 2019
Temperature: 4.0°C (39°F)
Dewpoint: 2.0°C (36°F) [RH = 87%]
Pressure (altimeter): 30.00 inches Hg (1016.0 mb)
Winds: from the NE (50 degrees) at 5 MPH (4 knots; 2.1 m/s)
Visibility: 6 or more miles (10+ km)
Ceiling: 3500 feet AGL
Clouds: scattered clouds at 1600 feet AGL
broken clouds at 3500 feet AGL
Weather: no significant weather observed at this time

METAR text: URSS 231630Z 05001MPS 9999 BKN016 BKN035CB 05/03 Q1016 WS ALL RWY R02/290060 R06/290060 NOSIG RMK R06/05002MPS MT OBSC QFE760
Conditions at: URSS (SOTCHI , RU) observed 1630 UTC 23 March 2019
Temperature: 5.0°C (41°F)
Dewpoint: 3.0°C (37°F) [RH = 87%]
Pressure (altimeter): 30.00 inches Hg (1016.0 mb)
Winds: from the NE (50 degrees) at 2 MPH (2 knots; 1.0 m/s)
Visibility: 6 or more miles (10+ km)
Ceiling: 1600 feet AGL
Clouds: broken clouds at 1600 feet AGL
broken clouds at 3500 feet AGL
Weather: no significant weather observed at this time

METAR text: URSS 231600Z 13001MPS 9999 BKN015 BKN040CB 05/03 Q1015 WS ALL RWY R02/290060 R06/290060 NOSIG RMK R06/12002MPS MT OBSC QFE760
Conditions at: URSS (SOTCHI , RU) observed 1600 UTC 23 March 2019
Temperature: 5.0°C (41°F)
Dewpoint: 3.0°C (37°F) [RH = 87%]
Pressure (altimeter): 29.97 inches Hg (1015.0 mb)
Winds: from the SE (130 degrees) at 2 MPH (2 knots; 1.0 m/s)
Visibility: 6 or more miles (10+ km)
Ceiling: 1500 feet AGL
Clouds: broken clouds at 1500 feet AGL
broken clouds at 4000 feet AGL
Weather: no significant weather observed at this time

METAR text: URSS 231530Z 16003MPS 9999 -SHRA BKN014 BKN040CB 06/03 Q1015 WS ALL RWY R02/290258 R06/290258 NOSIG RMK R06/21002MPS MT OBSC QFE760
Conditions at: URSS (SOTCHI , RU) observed 1530 UTC 23 March 2019
Temperature: 6.0°C (43°F)
Dewpoint: 3.0°C (37°F) [RH = 81%]
Pressure (altimeter): 29.97 inches Hg (1015.0 mb)
Winds: from the SSE (160 degrees) at 7 MPH (6 knots; 3.1 m/s)
Visibility: 6 or more miles (10+ km)
Ceiling: 1400 feet AGL
Clouds: broken clouds at 1400 feet AGL
broken clouds at 4000 feet AGL
Weather: -SHRA  (light rain showers)

METAR text: URSS 231500Z 16005MPS 120V190 9000 -SHRA BKN014 OVC040CB 05/03 Q1015 WS ALL RWY R02/290258 R06/290258 NOSIG RMK R06/17004G08MPS MT OBSC QFE760
Conditions at: URSS (SOTCHI , RU) observed 1500 UTC 23 March 2019
Temperature: 5.0°C (41°F)
Dewpoint: 3.0°C (37°F) [RH = 87%]
Pressure (altimeter): 29.97 inches Hg (1015.0 mb)
Winds: from the SSE (160 degrees) at 12 MPH (10 knots; 5.1 m/s)
Visibility: 6 miles ( 9 km)
Ceiling: 1400 feet AGL
Clouds: broken clouds at 1400 feet AGL
overcast cloud deck at 4000 feet AGL
Weather: -SHRA  (light rain showers)

METAR text: URSS 231430Z 16004MPS 9999 -SHRA BKN014 OVC040CB 05/03 Q1015 WS ALL RWY R02/290258 R06/290258 NOSIG RMK R06/16005G08MPS MT OBSC QFE760
Conditions at: URSS (SOTCHI , RU) observed 1430 UTC 23 March 2019
Temperature: 5.0°C (41°F)
Dewpoint: 3.0°C (37°F) [RH = 87%]
Pressure (altimeter): 29.97 inches Hg (1015.0 mb)
Winds: from the SSE (160 degrees) at 9 MPH (8 knots; 4.1 m/s)
Visibility: 6 or more miles (10+ km)
Ceiling: 1400 feet AGL
Clouds: broken clouds at 1400 feet AGL
overcast cloud deck at 4000 feet AGL
Weather: -SHRA  (light rain showers)

METAR text: URSS 231400Z 14006MPS 9000 -SHRA BKN015 OVC030CB 06/04 Q1014 WS ALL RWY R02/290060 R06/290060 NOSIG RMK R06/14007G12MPS MT OBSC QFE759
Conditions at: URSS (SOTCHI , RU) observed 1400 UTC 23 March 2019
Temperature: 6.0°C (43°F)
Dewpoint: 4.0°C (39°F) [RH = 87%]
Pressure (altimeter): 29.94 inches Hg (1014.0 mb)
Winds: from the SE (140 degrees) at 14 MPH (12 knots; 6.2 m/s)
Visibility: 6 miles ( 9 km)
Ceiling: 1500 feet AGL
Clouds: broken clouds at 1500 feet AGL
overcast cloud deck at 3000 feet AGL
Weather: -SHRA  (light rain showers)

METAR text: URSS 231330Z 14006G12MPS 8000 -SHRA BKN015 OVC030CB 05/03 Q1014 WS ALL RWY R02/290060 R06/290060 NOSIG RMK R06/14007G12MPS MT OBSC QFE759
Conditions at: URSS (SOTCHI , RU) observed 1330 UTC 23 March 2019
Temperature: 5.0°C (41°F)
Dewpoint: 3.0°C (37°F) [RH = 87%]
Pressure (altimeter): 29.94 inches Hg (1014.0 mb)
Winds: from the SE (140 degrees) at 14 MPH (12 knots; 6.2 m/s)
gusting to 26 MPH (23 knots; 11.8 m/s)
Visibility: 5 miles ( 8 km)
Ceiling: 1500 feet AGL
Clouds: broken clouds at 1500 feet AGL
overcast cloud deck at 3000 feet AGL
Weather: -SHRA  (light rain showers)

METAR text: URSS 231300Z 15004G09MPS 6000 -SHRA BKN015 OVC030CB 05/03 Q1015 WS ALL RWY R02/290060 R06/290060 NOSIG RMK R06/15008G12MPS MT OBSC QFE760
Conditions at: URSS (SOTCHI , RU) observed 1300 UTC 23 March 2019
Temperature: 5.0°C (41°F)
Dewpoint: 3.0°C (37°F) [RH = 87%]
Pressure (altimeter): 29.97 inches Hg (1015.0 mb)
Winds: from the SSE (150 degrees) at 9 MPH (8 knots; 4.1 m/s)
gusting to 20 MPH (17 knots; 8.7 m/s)
Visibility: 4 miles ( 6 km)
Ceiling: 1500 feet AGL
Clouds: broken clouds at 1500 feet AGL
overcast cloud deck at 3000 feet AGL
Weather: -SHRA  (light rain showers)

METAR text: URSS 231230Z 15005MPS 110V180 6000 -SHRA OVC023CB 06/03 Q1015 WS ALL RWY R02/290060 R06/290060 NOSIG RMK R06/16007G11MPS MT OBSC QFE760
Conditions at: URSS (SOTCHI , RU) observed 1230 UTC 23 March 2019
Temperature: 6.0°C (43°F)
Dewpoint: 3.0°C (37°F) [RH = 81%]
Pressure (altimeter): 29.97 inches Hg (1015.0 mb)
Winds: from the SSE (150 degrees) at 12 MPH (10 knots; 5.1 m/s)
Visibility: 4 miles ( 6 km)
Ceiling: 2300 feet AGL
Clouds: overcast cloud deck at 2300 feet AGL
Weather: -SHRA  (light rain showers)

METAR text: URSS 231200Z 15006MPS 9000 -SHRA OVC023CB 06/03 Q1014 WS ALL RWY R02/290060 R06/290060 NOSIG RMK R06/15006G11MPS MT OBSC QFE759
Conditions at: URSS (SOTCHI , RU) observed 1200 UTC 23 March 2019
Temperature: 6.0°C (43°F)
Dewpoint: 3.0°C (37°F) [RH = 81%]
Pressure (altimeter): 29.94 inches Hg (1014.0 mb)
Winds: from the SSE (150 degrees) at 14 MPH (12 knots; 6.2 m/s)
Visibility: 6 miles ( 9 km)
Ceiling: 2300 feet AGL
Clouds: overcast cloud deck at 2300 feet AGL
Weather: -SHRA  (light rain showers)

METAR text: URSS 231130Z 14006G11MPS 9000 -SHRA OVC025CB 06/03 Q1014 WS ALL RWY R02/290060 R06/290060 NOSIG RMK R06/14008G12MPS MT OBSC QFE759
Conditions at: URSS (SOTCHI , RU) observed 1130 UTC 23 March 2019
Temperature: 6.0°C (43°F)
Dewpoint: 3.0°C (37°F) [RH = 81%]
Pressure (altimeter): 29.94 inches Hg (1014.0 mb)
Winds: from the SE (140 degrees) at 14 MPH (12 knots; 6.2 m/s)
gusting to 24 MPH (21 knots; 10.8 m/s)
Visibility: 6 miles ( 9 km)
Ceiling: 2500 feet AGL
Clouds: overcast cloud deck at 2500 feet AGL
Weather: -SHRA  (light rain showers)

METAR text: URSS 231100Z 14006G12MPS 100V170 9000 -SHRA OVC024CB 07/03 Q1014 WS ALL RWY R02/290060 R06/290060 NOSIG RMK R06/14007G11MPS MT OBSC QFE759
Conditions at: URSS (SOTCHI , RU) observed 1100 UTC 23 March 2019
Temperature: 7.0°C (45°F)
Dewpoint: 3.0°C (37°F) [RH = 76%]
Pressure (altimeter): 29.94 inches Hg (1014.0 mb)
Winds: from the SE (140 degrees) at 14 MPH (12 knots; 6.2 m/s)
gusting to 26 MPH (23 knots; 11.8 m/s)
Visibility: 6 miles ( 9 km)
Ceiling: 2400 feet AGL
Clouds: overcast cloud deck at 2400 feet AGL
Weather: -SHRA  (light rain showers)

METAR text: URSS 231030Z 13004G09MPS 9999 -SHRA OVC026CB 07/03 Q1015 WS ALL RWY R02/190060 R06/190060 NOSIG RMK R06/13007G12MPS MT OBSC QFE760
Conditions at: URSS (SOTCHI , RU) observed 1030 UTC 23 March 2019
Temperature: 7.0°C (45°F)
Dewpoint: 3.0°C (37°F) [RH = 76%]
Pressure (altimeter): 29.97 inches Hg (1015.0 mb)
Winds: from the SE (130 degrees) at 9 MPH (8 knots; 4.1 m/s)
gusting to 20 MPH (17 knots; 8.7 m/s)
Visibility: 6 or more miles (10+ km)
Ceiling: 2600 feet AGL
Clouds: overcast cloud deck at 2600 feet AGL
Weather: -SHRA  (light rain showers)

METAR text: URSS 231000Z 13005MPS 9999 -SHRA OVC028CB 07/03 Q1015 WS ALL RWY R02/290055 R06/290055 NOSIG RMK R06/14006G10MPS MT OBSC QFE760
Conditions at: URSS (SOTCHI , RU) observed 1000 UTC 23 March 2019
Temperature: 7.0°C (45°F)
Dewpoint: 3.0°C (37°F) [RH = 76%]
Pressure (altimeter): 29.97 inches Hg (1015.0 mb)
Winds: from the SE (130 degrees) at 12 MPH (10 knots; 5.1 m/s)
Visibility: 6 or more miles (10+ km)
Ceiling: 2800 feet AGL
Clouds: overcast cloud deck at 2800 feet AGL
Weather: -SHRA  (light rain showers)

METAR text: URSS 230930Z 12005MPS 9999 -SHRA BKN031CB OVC073 07/03 Q1015 WS ALL RWY R02/290055 R06/290055 NOSIG RMK R06/12007G11MPS MT OBSC QFE760
Conditions at: URSS (SOTCHI , RU) observed 0930 UTC 23 March 2019
Temperature: 7.0°C (45°F)
Dewpoint: 3.0°C (37°F) [RH = 76%]
Pressure (altimeter): 29.97 inches Hg (1015.0 mb)
Winds: from the ESE (120 degrees) at 12 MPH (10 knots; 5.1 m/s)
Visibility: 6 or more miles (10+ km)
Ceiling: 3100 feet AGL
Clouds: broken clouds at 3100 feet AGL
overcast cloud deck at 7300 feet AGL
Weather: -SHRA  (light rain showers)

METAR text: URSS 230900Z 13005G10MPS 9999 BKN032CB OVC073 07/03 Q1016 WS ALL RWY R02/290055 R06/290055 NOSIG RMK R06/13008G12MPS MT OBSC QFE760
Conditions at: URSS (SOTCHI , RU) observed 0900 UTC 23 March 2019
Temperature: 7.0°C (45°F)
Dewpoint: 3.0°C (37°F) [RH = 76%]
Pressure (altimeter): 30.00 inches Hg (1016.0 mb)
Winds: from the SE (130 degrees) at 12 MPH (10 knots; 5.1 m/s)
gusting to 22 MPH (19 knots; 9.8 m/s)
Visibility: 6 or more miles (10+ km)
Ceiling: 3200 feet AGL
Clouds: broken clouds at 3200 feet AGL
overcast cloud deck at 7300 feet AGL
Weather: no significant weather observed at this time

METAR text: URSS 230830Z 12004MPS 9999 BKN040CB OVC073 06/03 Q1016 WS ALL RWY R02/290055 R06/290055 NOSIG RMK R06/12005G09MPS MT OBSC QFE761
Conditions at: URSS (SOTCHI , RU) observed 0830 UTC 23 March 2019
Temperature: 6.0°C (43°F)
Dewpoint: 3.0°C (37°F) [RH = 81%]
Pressure (altimeter): 30.00 inches Hg (1016.0 mb)
Winds: from the ESE (120 degrees) at 9 MPH (8 knots; 4.1 m/s)
Visibility: 6 or more miles (10+ km)
Ceiling: 4000 feet AGL
Clouds: broken clouds at 4000 feet AGL
overcast cloud deck at 7300 feet AGL
Weather: no significant weather observed at this time

METAR text: URSS 230800Z 10006MPS 9999 BKN030CB OVC073 05/03 Q1017 WS ALL RWY R02/290355 R06/290355 NOSIG RMK R06/11007G10MPS MT OBSC QFE761
Conditions at: URSS (SOTCHI , RU) observed 0800 UTC 23 March 2019
Temperature: 5.0°C (41°F)
Dewpoint: 3.0°C (37°F) [RH = 87%]
Pressure (altimeter): 30.03 inches Hg (1017.0 mb)
Winds: from the E (100 degrees) at 14 MPH (12 knots; 6.2 m/s)
Visibility: 6 or more miles (10+ km)
Ceiling: 3000 feet AGL
Clouds: broken clouds at 3000 feet AGL
overcast cloud deck at 7300 feet AGL
Weather: no significant weather observed at this time

METAR text: URSS 230730Z 11005MPS 9999 -SHRA FEW012 OVC029CB 05/03 Q1018 WS ALL RWY R02/290355 R06/290355 NOSIG RMK R06/11007G10MPS MT OBSC QFE762
Conditions at: URSS (SOTCHI , RU) observed 0730 UTC 23 March 2019
Temperature: 5.0°C (41°F)
Dewpoint: 3.0°C (37°F) [RH = 87%]
Pressure (altimeter): 30.06 inches Hg (1018.0 mb)
Winds: from the ESE (110 degrees) at 12 MPH (10 knots; 5.1 m/s)
Visibility: 6 or more miles (10+ km)
Ceiling: 2900 feet AGL
Clouds: few clouds at 1200 feet AGL
overcast cloud deck at 2900 feet AGL
Weather: -SHRA  (light rain showers)

METAR text: URSS 230700Z 13005MPS 8000 -SHRA FEW010 OVC024CB 05/03 Q1018 WS ALL RWY R02/290355 R06/290355 NOSIG RMK R06/12007MPS MT OBSC QFE762
Conditions at: URSS (SOTCHI , RU) observed 0700 UTC 23 March 2019
Temperature: 5.0°C (41°F)
Dewpoint: 3.0°C (37°F) [RH = 87%]
Pressure (altimeter): 30.06 inches Hg (1018.0 mb)
Winds: from the SE (130 degrees) at 12 MPH (10 knots; 5.1 m/s)
Visibility: 5 miles ( 8 km)
Ceiling: 2400 feet AGL
Clouds: few clouds at 1000 feet AGL
overcast cloud deck at 2400 feet AGL
Weather: -SHRA  (light rain showers)

METAR text: URSS 230630Z 13008MPS 8000 -SHRA FEW010 OVC028CB 05/03 Q1019 WS ALL RWY R06/290355 R02/290355 NOSIG RMK R02/12006G09MPS MT OBSC QFE763
Conditions at: URSS (SOTCHI , RU) observed 0630 UTC 23 March 2019
Temperature: 5.0°C (41°F)
Dewpoint: 3.0°C (37°F) [RH = 87%]
Pressure (altimeter): 30.09 inches Hg (1019.0 mb)
Winds: from the SE (130 degrees) at 18 MPH (16 knots; 8.2 m/s)
Visibility: 5 miles ( 8 km)
Ceiling: 2800 feet AGL
Clouds: few clouds at 1000 feet AGL
overcast cloud deck at 2800 feet AGL
Weather: -SHRA  (light rain showers)

METAR text: URSS 230600Z 12004MPS 4100 -SHRA FEW010 OVC027CB 05/04 Q1019 WS ALL RWY R06/250355 R02/190060 TEMPO 0500 +TSRA BKN020CB OVC100 RMK R02/13004MPS MT OBSC QFE763
Conditions at: URSS (SOTCHI , RU) observed 0600 UTC 23 March 2019
Temperature: 5.0°C (41°F)
Dewpoint: 4.0°C (39°F) [RH = 93%]
Pressure (altimeter): 30.09 inches Hg (1019.0 mb)
Winds: from the ESE (120 degrees) at 9 MPH (8 knots; 4.1 m/s)
Visibility: 2.55 miles (4.10 km)
Ceiling: 2700 feet AGL
Clouds: few clouds at 1000 feet AGL
overcast cloud deck at 2700 feet AGL
Weather: -SHRA  (light rain showers)

METAR text: URSS 230530Z 19005MPS 2500 -SHRA SCT008 OVC025CB 05/04 Q1020 WS ALL RWY R06/190060 R02/190060 TEMPO 0500 +TSRA BKN020CB OVC100 RMK R02/20005G08MPS MT OBSC QFE764
Conditions at: URSS (SOTCHI , RU) observed 0530 UTC 23 March 2019
Temperature: 5.0°C (41°F)
Dewpoint: 4.0°C (39°F) [RH = 93%]
Pressure (altimeter): 30.12 inches Hg (1020.0 mb)
Winds: from the S (190 degrees) at 12 MPH (10 knots; 5.1 m/s)
Visibility: 1.55 miles (2.49 km)
Ceiling: 2500 feet AGL
Clouds: scattered clouds at 800 feet AGL
overcast cloud deck at 2500 feet AGL
Weather: -SHRA  (light rain showers)

METAR text: URSS 230500Z 19006MPS 6000 -SHRA SCT010 OVC025CB 06/03 Q1019 WS ALL RWY R06/190060 R02/190060 NOSIG RMK R02/20006G09MPS MT OBSC QFE764
Conditions at: URSS (SOTCHI , RU) observed 0500 UTC 23 March 2019
Temperature: 6.0°C (43°F)
Dewpoint: 3.0°C (37°F) [RH = 81%]
Pressure (altimeter): 30.09 inches Hg (1019.0 mb)
Winds: from the S (190 degrees) at 14 MPH (12 knots; 6.2 m/s)
Visibility: 4 miles ( 6 km)
Ceiling: 2500 feet AGL
Clouds: scattered clouds at 1000 feet AGL
overcast cloud deck at 2500 feet AGL
Weather: -SHRA  (light rain showers)

METAR text: URSS 230430Z 17004MPS 130V220 8000 -SHRA OVC028CB 07/02 Q1019 WS ALL RWY R06/190060 R02/190060 NOSIG RMK R02/16004G11MPS MT OBSC QFE763
Conditions at: URSS (SOTCHI , RU) observed 0430 UTC 23 March 2019
Temperature: 7.0°C (45°F)
Dewpoint: 2.0°C (36°F) [RH = 70%]
Pressure (altimeter): 30.09 inches Hg (1019.0 mb)
Winds: from the S (170 degrees) at 9 MPH (8 knots; 4.1 m/s)
Visibility: 5 miles ( 8 km)
Ceiling: 2800 feet AGL
Clouds: overcast cloud deck at 2800 feet AGL
Weather: -SHRA  (light rain showers)

METAR text: URSS 230400Z 13005MPS 9999 -SHRA OVC031CB 08/02 Q1019 WS ALL RWY R06/190060 R02/190060 NOSIG RMK R02/14005MPS MT OBSC QFE763
Conditions at: URSS (SOTCHI , RU) observed 0400 UTC 23 March 2019
Temperature: 8.0°C (46°F)
Dewpoint: 2.0°C (36°F) [RH = 66%]
Pressure (altimeter): 30.09 inches Hg (1019.0 mb)
Winds: from the SE (130 degrees) at 12 MPH (10 knots; 5.1 m/s)
Visibility: 6 or more miles (10+ km)
Ceiling: 3100 feet AGL
Clouds: overcast cloud deck at 3100 feet AGL
Weather: -SHRA  (light rain showers)

METAR text: URSS 230330Z 14005MPS 9999 -SHRA SCT016 OVC037CB 08/02 Q1019 R06/190060 R02/010070 NOSIG RMK R02/12004MPS MT OBSC QFE763
Conditions at: URSS (SOTCHI , RU) observed 0330 UTC 23 March 2019
Temperature: 8.0°C (46°F)
Dewpoint: 2.0°C (36°F) [RH = 66%]
Pressure (altimeter): 30.09 inches Hg (1019.0 mb)
Winds: from the SE (140 degrees) at 12 MPH (10 knots; 5.1 m/s)
Visibility: 6 or more miles (10+ km)
Ceiling: 3700 feet AGL
Clouds: scattered clouds at 1600 feet AGL
overcast cloud deck at 3700 feet AGL
Weather: -SHRA  (light rain showers)

METAR text: URSS 230300Z 13005MPS 9999 SCT016 OVC043CB 08/02 Q1020 R06/190060 R02/010070 NOSIG RMK R02/13003G06MPS MT OBSC QFE764
Conditions at: URSS (SOTCHI , RU) observed 0300 UTC 23 March 2019
Temperature: 8.0°C (46°F)
Dewpoint: 2.0°C (36°F) [RH = 66%]
Pressure (altimeter): 30.12 inches Hg (1020.0 mb)
Winds: from the SE (130 degrees) at 12 MPH (10 knots; 5.1 m/s)
Visibility: 6 or more miles (10+ km)
Ceiling: 4300 feet AGL
Clouds: scattered clouds at 1600 feet AGL
overcast cloud deck at 4300 feet AGL
Weather: no significant weather observed at this time

METAR text: URSS 230230Z 12006MPS 9999 -SHRA SCT016 OVC050CB 08/04 Q1020 R06/190060 R02/010070 NOSIG RMK R02/13003G06MPS MT OBSC QFE764
Conditions at: URSS (SOTCHI , RU) observed 0230 UTC 23 March 2019
Temperature: 8.0°C (46°F)
Dewpoint: 4.0°C (39°F) [RH = 76%]
Pressure (altimeter): 30.12 inches Hg (1020.0 mb)
Winds: from the ESE (120 degrees) at 14 MPH (12 knots; 6.2 m/s)
Visibility: 6 or more miles (10+ km)
Ceiling: 5000 feet AGL
Clouds: scattered clouds at 1600 feet AGL
overcast cloud deck at 5000 feet AGL
Weather: -SHRA  (light rain showers)

METAR text: URSS 230200Z 14005MPS 9999 SCT016 OVC050CB 08/05 Q1020 R06/010070 R02/010070 NOSIG RMK R02/13003G06MPS MT OBSC QFE764
Conditions at: URSS (SOTCHI , RU) observed 0200 UTC 23 March 2019
Temperature: 8.0°C (46°F)
Dewpoint: 5.0°C (41°F) [RH = 81%]
Pressure (altimeter): 30.12 inches Hg (1020.0 mb)
Winds: from the SE (140 degrees) at 12 MPH (10 knots; 5.1 m/s)
Visibility: 6 or more miles (10+ km)
Ceiling: 5000 feet AGL
Clouds: scattered clouds at 1600 feet AGL
overcast cloud deck at 5000 feet AGL
Weather: no significant weather observed at this time

METAR text: URSS 230130Z 14003MPS 9999 -SHRA SCT016 OVC050CB 08/05 Q1021 R06/010070 R02/010070 NOSIG RMK R02/13003MPS MT OBSC QFE764
Conditions at: URSS (SOTCHI , RU) observed 0130 UTC 23 March 2019
Temperature: 8.0°C (46°F)
Dewpoint: 5.0°C (41°F) [RH = 81%]
Pressure (altimeter): 30.15 inches Hg (1021.0 mb)
Winds: from the SE (140 degrees) at 7 MPH (6 knots; 3.1 m/s)
Visibility: 6 or more miles (10+ km)
Ceiling: 5000 feet AGL
Clouds: scattered clouds at 1600 feet AGL
overcast cloud deck at 5000 feet AGL
Weather: -SHRA  (light rain showers)

METAR text: URSS 230100Z 10003MPS 9999 -SHRA SCT016 OVC060CB 08/04 Q1021 R06/010070 R02/010070 NOSIG RMK R02/11002MPS MT OBSC QFE765
Conditions at: URSS (SOTCHI , RU) observed 0100 UTC 23 March 2019
Temperature: 8.0°C (46°F)
Dewpoint: 4.0°C (39°F) [RH = 76%]
Pressure (altimeter): 30.15 inches Hg (1021.0 mb)
Winds: from the E (100 degrees) at 7 MPH (6 knots; 3.1 m/s)
Visibility: 6 or more miles (10+ km)
Ceiling: 6000 feet AGL
Clouds: scattered clouds at 1600 feet AGL
overcast cloud deck at 6000 feet AGL
Weather: -SHRA  (light rain showers)

METAR text: URSS 230030Z 07004MPS 9999 FEW016 OVC060CB 07/04 Q1022 R06/010070 R02/010070 NOSIG RMK R02/05002MPS MT OBSC QFE765
Conditions at: URSS (SOTCHI , RU) observed 0030 UTC 23 March 2019
Temperature: 7.0°C (45°F)
Dewpoint: 4.0°C (39°F) [RH = 81%]
Pressure (altimeter): 30.18 inches Hg (1022.0 mb)
Winds: from the ENE (70 degrees) at 9 MPH (8 knots; 4.1 m/s)
Visibility: 6 or more miles (10+ km)
Ceiling: 6000 feet AGL
Clouds: few clouds at 1600 feet AGL
overcast cloud deck at 6000 feet AGL
Weather: no significant weather observed at this time

METAR text: URSS 230000Z 07003MPS 9999 FEW020 OVC060 07/04 Q1022 R06/010070 R02/010070 NOSIG RMK R02/04003MPS MT OBSC QFE765
Conditions at: URSS (SOTCHI , RU) observed 0000 UTC 23 March 2019
Temperature: 7.0°C (45°F)
Dewpoint: 4.0°C (39°F) [RH = 81%]
Pressure (altimeter): 30.18 inches Hg (1022.0 mb)
Winds: from the ENE (70 degrees) at 7 MPH (6 knots; 3.1 m/s)
Visibility: 6 or more miles (10+ km)
Ceiling: 6000 feet AGL
Clouds: few clouds at 2000 feet AGL
overcast cloud deck at 6000 feet AGL
Weather: no significant weather observed at this time

METAR text: URSS 222330Z 07003MPS 9999 FEW022 OVC070 07/04 Q1022 R06/010070 R02/010070 NOSIG RMK R02/07001MPS MT OBSC QFE766
Conditions at: URSS (SOTCHI , RU) observed 2330 UTC 22 March 2019
Temperature: 7.0°C (45°F)
Dewpoint: 4.0°C (39°F) [RH = 81%]
Pressure (altimeter): 30.18 inches Hg (1022.0 mb)
Winds: from the ENE (70 degrees) at 7 MPH (6 knots; 3.1 m/s)
Visibility: 6 or more miles (10+ km)
Ceiling: 7000 feet AGL
Clouds: few clouds at 2200 feet AGL
overcast cloud deck at 7000 feet AGL
Weather: no significant weather observed at this time

METAR text: URSS 222300Z 09004MPS 9999 OVC073 07/04 Q1023 R06/010070 R02/010070 NOSIG RMK R02/05002MPS QFE766
Conditions at: URSS (SOTCHI , RU) observed 2300 UTC 22 March 2019
Temperature: 7.0°C (45°F)
Dewpoint: 4.0°C (39°F) [RH = 81%]
Pressure (altimeter): 30.21 inches Hg (1023.0 mb)
Winds: from the E (90 degrees) at 9 MPH (8 knots; 4.1 m/s)
Visibility: 6 or more miles (10+ km)
Ceiling: 7300 feet AGL
Clouds: overcast cloud deck at 7300 feet AGL
Weather: no significant weather observed at this time

METAR text: URSS 222230Z 07004MPS 9999 OVC086 07/04 Q1023 R06/010070 R02/010070 NOSIG RMK R02/06003MPS QFE766
Conditions at: URSS (SOTCHI , RU) observed 2230 UTC 22 March 2019
Temperature: 7.0°C (45°F)
Dewpoint: 4.0°C (39°F) [RH = 81%]
Pressure (altimeter): 30.21 inches Hg (1023.0 mb)
Winds: from the ENE (70 degrees) at 9 MPH (8 knots; 4.1 m/s)
Visibility: 6 or more miles (10+ km)
Ceiling: 8600 feet AGL
Clouds: overcast cloud deck at 8600 feet AGL
Weather: no significant weather observed at this time

METAR text: URSS 222200Z 08004MPS 9999 OVC076 07/04 Q1023 R06/010070 R02/010070 NOSIG RMK R02/05003MPS QFE766
Conditions at: URSS (SOTCHI , RU) observed 2200 UTC 22 March 2019
Temperature: 7.0°C (45°F)
Dewpoint: 4.0°C (39°F) [RH = 81%]
Pressure (altimeter): 30.21 inches Hg (1023.0 mb)
Winds: from the E (80 degrees) at 9 MPH (8 knots; 4.1 m/s)
Visibility: 6 or more miles (10+ km)
Ceiling: 7600 feet AGL
Clouds: overcast cloud deck at 7600 feet AGL
Weather: no significant weather observed at this time

METAR text: URSS 222130Z 04003MPS 9999 OVC076 07/04 Q1023 R02/010070 R06/010070 NOSIG RMK R06/08003MPS QFE766
Conditions at: URSS (SOTCHI , RU) observed 2130 UTC 22 March 2019
Temperature: 7.0°C (45°F)
Dewpoint: 4.0°C (39°F) [RH = 81%]
Pressure (altimeter): 30.21 inches Hg (1023.0 mb)
Winds: from the NE (40 degrees) at 7 MPH (6 knots; 3.1 m/s)
Visibility: 6 or more miles (10+ km)
Ceiling: 7600 feet AGL
Clouds: overcast cloud deck at 7600 feet AGL
Weather: no significant weather observed at this time

METAR text: URSS 222100Z 06003MPS 9999 FEW030 OVC083 07/04 Q1023 R02/010070 R06/010070 NOSIG RMK R06/08003MPS MT OBSC QFE766
Conditions at: URSS (SOTCHI , RU) observed 2100 UTC 22 March 2019
Temperature: 7.0°C (45°F)
Dewpoint: 4.0°C (39°F) [RH = 81%]
Pressure (altimeter): 30.21 inches Hg (1023.0 mb)
Winds: from the ENE (60 degrees) at 7 MPH (6 knots; 3.1 m/s)
Visibility: 6 or more miles (10+ km)
Ceiling: 8300 feet AGL
Clouds: few clouds at 3000 feet AGL
overcast cloud deck at 8300 feet AGL
Weather: no significant weather observed at this time

METAR text: URSS 222030Z 06003MPS 9999 FEW022 OVC083 07/04 Q1024 R02/010070 R06/010070 NOSIG RMK R06/08002MPS MT OBSC QFE766
Conditions at: URSS (SOTCHI , RU) observed 2030 UTC 22 March 2019
Temperature: 7.0°C (45°F)
Dewpoint: 4.0°C (39°F) [RH = 81%]
Pressure (altimeter): 30.24 inches Hg (1024.0 mb)
Winds: from the ENE (60 degrees) at 7 MPH (6 knots; 3.1 m/s)
Visibility: 6 or more miles (10+ km)
Ceiling: 8300 feet AGL
Clouds: few clouds at 2200 feet AGL
overcast cloud deck at 8300 feet AGL
Weather: no significant weather observed at this time

METAR text: URSS 222000Z 05002MPS 9999 FEW022 OVC086 07/04 Q1024 R02/010070 R06/010070 NOSIG RMK R06/07003MPS MT OBSC QFE767
Conditions at: URSS (SOTCHI , RU) observed 2000 UTC 22 March 2019
Temperature: 7.0°C (45°F)
Dewpoint: 4.0°C (39°F) [RH = 81%]
Pressure (altimeter): 30.24 inches Hg (1024.0 mb)
Winds: from the NE (50 degrees) at 5 MPH (4 knots; 2.1 m/s)
Visibility: 6 or more miles (10+ km)
Ceiling: 8600 feet AGL
Clouds: few clouds at 2200 feet AGL
overcast cloud deck at 8600 feet AGL
Weather: no significant weather observed at this time

METAR text: URSS 221930Z 03003MPS 9999 FEW022 OVC120 07/05 Q1024 R02/010070 R06/010070 NOSIG RMK R06/08003MPS MT OBSC QFE767
Conditions at: URSS (SOTCHI , RU) observed 1930 UTC 22 March 2019
Temperature: 7.0°C (45°F)
Dewpoint: 5.0°C (41°F) [RH = 87%]
Pressure (altimeter): 30.24 inches Hg (1024.0 mb)
Winds: from the NNE (30 degrees) at 7 MPH (6 knots; 3.1 m/s)
Visibility: 6 or more miles (10+ km)
Ceiling: 12000 feet AGL
Clouds: few clouds at 2200 feet AGL
overcast cloud deck at 12000 feet AGL
Weather: no significant weather observed at this time

METAR text: URSS 221900Z 06002MPS 9999 FEW023 OVC100 07/05 Q1024 R02/010070 R06/010070 NOSIG RMK R06/08002MPS MT OBSC QFE767
Conditions at: URSS (SOTCHI , RU) observed 1900 UTC 22 March 2019
Temperature: 7.0°C (45°F)
Dewpoint: 5.0°C (41°F) [RH = 87%]
Pressure (altimeter): 30.24 inches Hg (1024.0 mb)
Winds: from the ENE (60 degrees) at 5 MPH (4 knots; 2.1 m/s)
Visibility: 6 or more miles (10+ km)
Ceiling: 10000 feet AGL
Clouds: few clouds at 2300 feet AGL
overcast cloud deck at 10000 feet AGL
Weather: no significant weather observed at this time

METAR text: URSS 221830Z 05002MPS 9999 FEW023 OVC100 07/05 Q1025 R02/010070 R06/010070 NOSIG RMK R06/08002MPS MT OBSC QFE767
Conditions at: URSS (SOTCHI , RU) observed 1830 UTC 22 March 2019
Temperature: 7.0°C (45°F)
Dewpoint: 5.0°C (41°F) [RH = 87%]
Pressure (altimeter): 30.27 inches Hg (1025.0 mb)
Winds: from the NE (50 degrees) at 5 MPH (4 knots; 2.1 m/s)
Visibility: 6 or more miles (10+ km)
Ceiling: 10000 feet AGL
Clouds: few clouds at 2300 feet AGL
overcast cloud deck at 10000 feet AGL
Weather: no significant weather observed at this time

METAR text: URSS 221800Z 05001MPS 9999 FEW040 OVC100 08/05 Q1025 R02/010070 R06/010070 NOSIG RMK R06/03001MPS MT OBSC QFE767
Conditions at: URSS (SOTCHI , RU) observed 1800 UTC 22 March 2019
Temperature: 8.0°C (46°F)
Dewpoint: 5.0°C (41°F) [RH = 81%]
Pressure (altimeter): 30.27 inches Hg (1025.0 mb)
Winds: from the NE (50 degrees) at 2 MPH (2 knots; 1.0 m/s)
Visibility: 6 or more miles (10+ km)
Ceiling: 10000 feet AGL
Clouds: few clouds at 4000 feet AGL
overcast cloud deck at 10000 feet AGL
Weather: no significant weather observed at this time

METAR text: URSS 221730Z 07001MPS 9999 FEW040 OVC110 09/04 Q1025 R02/010070 R06/010070 NOSIG RMK R06/36002MPS MT OBSC QFE767
Conditions at: URSS (SOTCHI , RU) observed 1730 UTC 22 March 2019
Temperature: 9.0°C (48°F)
Dewpoint: 4.0°C (39°F) [RH = 71%]
Pressure (altimeter): 30.27 inches Hg (1025.0 mb)
Winds: from the ENE (70 degrees) at 2 MPH (2 knots; 1.0 m/s)
Visibility: 6 or more miles (10+ km)
Ceiling: 11000 feet AGL
Clouds: few clouds at 4000 feet AGL
overcast cloud deck at 11000 feet AGL
Weather: no significant weather observed at this time

METAR text: URSS 221700Z 01001MPS 9999 FEW040 OVC080 09/04 Q1025 R02/010070 R06/010070 NOSIG RMK R06/01001MPS MT OBSC QFE767
Conditions at: URSS (SOTCHI , RU) observed 1700 UTC 22 March 2019
Temperature: 9.0°C (48°F)
Dewpoint: 4.0°C (39°F) [RH = 71%]
Pressure (altimeter): 30.27 inches Hg (1025.0 mb)
Winds: from the N (10 degrees) at 2 MPH (2 knots; 1.0 m/s)
Visibility: 6 or more miles (10+ km)
Ceiling: 8000 feet AGL
Clouds: few clouds at 4000 feet AGL
overcast cloud deck at 8000 feet AGL
Weather: no significant weather observed at this time

METAR text: URSS 221630Z 35001MPS 9999 FEW030 OVC100 09/04 Q1025 R02/010070 R06/010070 NOSIG RMK R06/02001MPS MT OBSC QFE767
Conditions at: URSS (SOTCHI , RU) observed 1630 UTC 22 March 2019
Temperature: 9.0°C (48°F)
Dewpoint: 4.0°C (39°F) [RH = 71%]
Pressure (altimeter): 30.27 inches Hg (1025.0 mb)
Winds: from the N (350 degrees) at 2 MPH (2 knots; 1.0 m/s)
Visibility: 6 or more miles (10+ km)
Ceiling: 10000 feet AGL
Clouds: few clouds at 3000 feet AGL
overcast cloud deck at 10000 feet AGL
Weather: no significant weather observed at this time

METAR text: URSS 221600Z 31002MPS 9999 FEW030 OVC120 09/04 Q1025 R02/010070 R06/010070 NOSIG RMK R06/33002G06MPS MT OBSC QFE767
Conditions at: URSS (SOTCHI , RU) observed 1600 UTC 22 March 2019
Temperature: 9.0°C (48°F)
Dewpoint: 4.0°C (39°F) [RH = 71%]
Pressure (altimeter): 30.27 inches Hg (1025.0 mb)
Winds: from the NW (310 degrees) at 5 MPH (4 knots; 2.1 m/s)
Visibility: 6 or more miles (10+ km)
Ceiling: 12000 feet AGL
Clouds: few clouds at 3000 feet AGL
overcast cloud deck at 12000 feet AGL
Weather: no significant weather observed at this time

METAR text: URSS 221530Z 31002MPS 9999 FEW026CB 09/04 Q1025 R02/010070 R06/010070 NOSIG RMK R06/31003MPS MT OBSC QFE767
Conditions at: URSS (SOTCHI , RU) observed 1530 UTC 22 March 2019
Temperature: 9.0°C (48°F)
Dewpoint: 4.0°C (39°F) [RH = 71%]
Pressure (altimeter): 30.27 inches Hg (1025.0 mb)
Winds: from the NW (310 degrees) at 5 MPH (4 knots; 2.1 m/s)
Visibility: 6 or more miles (10+ km)
Ceiling: at least 12,000 feet AGL
Clouds: few clouds at 2600 feet AGL
Weather: no significant weather observed at this time

METAR text: URSS 221500Z 29004MPS 9999 SCT026CB 09/05 Q1024 R02/010070 R06/010070 NOSIG RMK R06/29004MPS MT OBSC QFE767
Conditions at: URSS (SOTCHI , RU) observed 1500 UTC 22 March 2019
Temperature: 9.0°C (48°F)
Dewpoint: 5.0°C (41°F) [RH = 76%]
Pressure (altimeter): 30.24 inches Hg (1024.0 mb)
Winds: from the WNW (290 degrees) at 9 MPH (8 knots; 4.1 m/s)
Visibility: 6 or more miles (10+ km)
Ceiling: at least 12,000 feet AGL
Clouds: scattered clouds at 2600 feet AGL
Weather: no significant weather observed at this time

METAR text: URSS 221430Z 28004MPS 9999 SCT026CB 10/04 Q1024 R02/010070 R06/////// NOSIG RMK R06/29005MPS MT OBSC QFE767
Conditions at: URSS (SOTCHI , RU) observed 1430 UTC 22 March 2019
Temperature: 10.0°C (50°F)
Dewpoint: 4.0°C (39°F) [RH = 66%]
Pressure (altimeter): 30.24 inches Hg (1024.0 mb)
Winds: from the W (280 degrees) at 9 MPH (8 knots; 4.1 m/s)
Visibility: 6 or more miles (10+ km)
Ceiling: at least 12,000 feet AGL
Clouds: scattered clouds at 2600 feet AGL
Weather: no significant weather observed at this time

METAR text: URSS 221400Z 28004G09MPS 230V300 9999 SCT026CB 10/04 Q1024 R02/010070 R06/////// NOSIG RMK R06/29005MPS MT OBSC QFE767
Conditions at: URSS (SOTCHI , RU) observed 1400 UTC 22 March 2019
Temperature: 10.0°C (50°F)
Dewpoint: 4.0°C (39°F) [RH = 66%]
Pressure (altimeter): 30.24 inches Hg (1024.0 mb)
Winds: from the W (280 degrees) at 9 MPH (8 knots; 4.1 m/s)
gusting to 20 MPH (17 knots; 8.7 m/s)
Visibility: 6 or more miles (10+ km)
Ceiling: at least 12,000 feet AGL
Clouds: scattered clouds at 2600 feet AGL
Weather: no significant weather observed at this time

METAR text: URSS 221330Z 28005MPS 9999 FEW030CB 10/04 Q1025 R02/010070 R06/////// NOSIG RMK R06/29006MPS MT OBSC QFE767
Conditions at: URSS (SOTCHI , RU) observed 1330 UTC 22 March 2019
Temperature: 10.0°C (50°F)
Dewpoint: 4.0°C (39°F) [RH = 66%]
Pressure (altimeter): 30.27 inches Hg (1025.0 mb)
Winds: from the W (280 degrees) at 12 MPH (10 knots; 5.1 m/s)
Visibility: 6 or more miles (10+ km)
Ceiling: at least 12,000 feet AGL
Clouds: few clouds at 3000 feet AGL
Weather: no significant weather observed at this time

METAR text: URSS 221300Z 28005MPS 9999 FEW030CB BKN100 10/05 Q1025 R02/010070 R06/////// NOSIG RMK R06/29006MPS MT OBSC QFE767
Conditions at: URSS (SOTCHI , RU) observed 1300 UTC 22 March 2019
Temperature: 10.0°C (50°F)
Dewpoint: 5.0°C (41°F) [RH = 71%]
Pressure (altimeter): 30.27 inches Hg (1025.0 mb)
Winds: from the W (280 degrees) at 12 MPH (10 knots; 5.1 m/s)
Visibility: 6 or more miles (10+ km)
Ceiling: 10000 feet AGL
Clouds: few clouds at 3000 feet AGL
broken clouds at 10000 feet AGL
Weather: no significant weather observed at this time

METAR text: URSS 221230Z 28005MPS 9999 FEW030CB SCT100 11/05 Q1025 R02/010070 R06/////// NOSIG RMK R06/28005MPS MT OBSC QFE767
Conditions at: URSS (SOTCHI , RU) observed 1230 UTC 22 March 2019
Temperature: 11.0°C (52°F)
Dewpoint: 5.0°C (41°F) [RH = 66%]
Pressure (altimeter): 30.27 inches Hg (1025.0 mb)
Winds: from the W (280 degrees) at 12 MPH (10 knots; 5.1 m/s)
Visibility: 6 or more miles (10+ km)
Ceiling: at least 12,000 feet AGL
Clouds: few clouds at 3000 feet AGL
scattered clouds at 10000 feet AGL
Weather: no significant weather observed at this time

METAR text: URSS 221200Z 28004MPS 9999 FEW030CB SCT080 10/05 Q1025 R02/010070 R06/////// NOSIG RMK R06/28005MPS MT OBSC QFE767
Conditions at: URSS (SOTCHI , RU) observed 1200 UTC 22 March 2019
Temperature: 10.0°C (50°F)
Dewpoint: 5.0°C (41°F) [RH = 71%]
Pressure (altimeter): 30.27 inches Hg (1025.0 mb)
Winds: from the W (280 degrees) at 9 MPH (8 knots; 4.1 m/s)
Visibility: 6 or more miles (10+ km)
Ceiling: at least 12,000 feet AGL
Clouds: few clouds at 3000 feet AGL
scattered clouds at 8000 feet AGL
Weather: no significant weather observed at this time

METAR text: URSS 221130Z 28004G09MPS 230V300 9999 SCT030CB BKN080 11/05 Q1025 R02/010070 R06/////// NOSIG RMK R06/29004MPS MT OBSC QFE767
Conditions at: URSS (SOTCHI , RU) observed 1130 UTC 22 March 2019
Temperature: 11.0°C (52°F)
Dewpoint: 5.0°C (41°F) [RH = 66%]
Pressure (altimeter): 30.27 inches Hg (1025.0 mb)
Winds: from the W (280 degrees) at 9 MPH (8 knots; 4.1 m/s)
gusting to 20 MPH (17 knots; 8.7 m/s)
Visibility: 6 or more miles (10+ km)
Ceiling: 8000 feet AGL
Clouds: scattered clouds at 3000 feet AGL
broken clouds at 8000 feet AGL
Weather: no significant weather observed at this time

Forecast for: URSS (SOTCHI , RU)
Text: TAF URSS 231955Z 2321/2421 05006MPS 9999 BKN020CB OVC100
Forecast period: 2100 UTC 23 March 2019 to 0600 UTC 24 March 2019
Forecast type: FROM: standard forecast or significant change
Winds: from the NE (50 degrees) at 14 MPH (12 knots; 6.2 m/s)
Visibility: 6 or more miles 10+ km)
Ceiling: 2000 feet AGL
Clouds: broken clouds at 2000 feet AGL
overcast cloud deck at 10000 feet AGL
Weather: no significant weather forecast for this period
Text: TEMPO 2321/2406 VRB06G11MPS 3100 -TSRAGS BKN011 BKN020CB OVC100
Forecast period: 2100 UTC 23 March 2019 to 0600 UTC 24 March 2019
Forecast type: TEMPORARY: The following changes expected for less than half the time period
Winds: variable direction winds at 14 MPH (12 knots; 6.2 m/s)
gusting to 24 MPH (21 knots; 10.8 m/s)
Visibility: 1.93 miles (3.11 km)
Ceiling: 1100 feet AGL
Clouds: broken clouds at 1100 feet AGL
broken clouds at 2000 feet AGL
overcast cloud deck at 10000 feet AGL
Weather: -TSRA -TSGS  (light rain associated with thunderstorm(s), unknown weather)
Text: BECMG 2406/2408 25005G10MPS SCT100
Forecast period: 0600 to 1600 UTC 24 March 2019
Forecast type: BECOMING: Conditions expected to become as follows by 0800 UTC 24 March 2019
Winds: from the WSW (250 degrees) at 12 MPH (10 knots; 5.1 m/s)
gusting to 22 MPH (19 knots; 9.8 m/s)
Visibility: 6 or more miles 10+ km)
Ceiling: at least 12,000 feet AGL
Clouds: scattered clouds at 10000 feet AGL
Weather: no significant weather forecast for this period
Text: TEMPO 2408/2416 29006G11MPS
Forecast period: 0800 to 1600 UTC 24 March 2019
Forecast type: TEMPORARY: The following changes expected for less than half the time period
Winds: from the WNW (290 degrees) at 14 MPH (12 knots; 6.2 m/s)
gusting to 24 MPH (21 knots; 10.8 m/s)
Visibility: missing
Ceiling: unknown
Clouds: missing
Weather: no significant weather forecast for this period
Text: BECMG 2416/2418 05006MPS NSC
Forecast period: 1600 to 2100 UTC 24 March 2019
Forecast type: BECOMING: Conditions expected to become as follows by 1800 UTC 24 March 2019
Winds: from the NE (50 degrees) at 14 MPH (12 knots; 6.2 m/s)
Visibility: 6 or more miles 10+ km)
Ceiling: unknown
Clouds: missing
Weather: no significant weather forecast for this period